Time;durP1;ratioP1;P1;durP2;ratioP2;P2;SDS_P1;SDS_P2;PMS_P1;PMS_P2;Temp;Humidity;BMP_temperature;BMP_pressure;BME280_temperature;BME280_humidity;BME280_pressure;Samples;Min_cycle;Max_cycle;Signal;HPM_P1;HPM_P2
2022/09/04 00:00:31;;;;;;;4.33;4.03;;;16.10;99.90;;;;;;5005482;28;20443;-89
2022/09/04 00:03:24;;;;;;;6.20;4.73;;;16.00;99.90;;;;;;5005239;28;20451;-89
2022/09/04 00:05:53;;;;;;;6.20;5.60;;;16.00;99.90;;;;;;4998259;28;20494;-89
2022/09/04 00:08:53;;;;;;;6.03;5.53;;;15.90;99.90;;;;;;5005870;28;20447;-88
2022/09/04 00:11:28;;;;;;;6.30;5.70;;;15.80;99.90;;;;;;4996444;28;20451;-88
2022/09/04 00:14:08;;;;;;;5.93;5.10;;;15.70;99.90;;;;;;4997440;28;20538;-88
2022/09/04 00:17:02;;;;;;;5.37;4.97;;;15.70;99.90;;;;;;5004507;28;20430;-88
2022/09/04 00:19:42;;;;;;;5.43;5.00;;;15.70;99.90;;;;;;4993787;28;20447;-88
2022/09/04 00:22:34;;;;;;;5.03;4.53;;;15.80;99.90;;;;;;5010371;28;20555;-88
2022/09/04 00:25:20;;;;;;;8.13;5.03;;;15.80;99.90;;;;;;5005256;28;21021;-88
2022/09/04 00:27:57;;;;;;;4.53;4.10;;;15.80;99.90;;;;;;4994027;28;20849;-89
2022/09/04 00:30:23;;;;;;;4.83;4.40;;;15.80;99.90;;;;;;5001374;28;21046;-88
2022/09/04 00:33:10;;;;;;;5.40;4.90;;;15.70;99.90;;;;;;5002408;28;20482;-89
2022/09/04 00:35:43;;;;;;;7.37;5.00;;;15.70;99.90;;;;;;5013167;28;20453;-90
2022/09/04 00:38:33;;;;;;;7.57;4.80;;;15.60;99.90;;;;;;4998899;28;20493;-87
2022/09/04 00:41:10;;;;;;;6.80;5.60;;;15.60;99.90;;;;;;5010764;28;22671;-87
2022/09/04 00:43:55;;;;;;;6.30;5.20;;;15.70;99.90;;;;;;5000512;28;21082;-90
2022/09/04 00:46:46;;;;;;;6.20;5.60;;;15.70;99.90;;;;;;4999500;28;20440;-87
2022/09/04 00:49:31;;;;;;;4.83;4.43;;;15.60;99.90;;;;;;5006195;28;21698;-87
2022/09/04 00:52:08;;;;;;;4.97;4.57;;;15.60;99.90;;;;;;5009023;28;20465;-88
2022/09/04 00:54:36;;;;;;;5.57;5.03;;;15.50;99.90;;;;;;5004762;28;20437;-89
2022/09/04 00:57:36;;;;;;;5.13;4.63;;;15.50;99.90;;;;;;5000355;28;20435;-89
2022/09/04 01:00:06;;;;;;;8.00;5.20;;;15.50;99.90;;;;;;4995567;28;20481;-88
2022/09/04 01:02:35;;;;;;;7.10;5.10;;;15.50;99.90;;;;;;5001953;28;20534;-88
2022/09/04 01:05:21;;;;;;;6.57;5.80;;;15.50;99.90;;;;;;4994798;28;21383;-87
2022/09/04 01:08:01;;;;;;;6.50;5.80;;;15.50;99.90;;;;;;5000788;28;21902;-88
2022/09/04 01:11:05;;;;;;;5.40;4.90;;;15.40;99.90;;;;;;4988489;28;20742;-87
2022/09/04 01:13:39;;;;;;;6.80;5.20;;;15.40;99.90;;;;;;4996376;28;20478;-88
2022/09/04 01:16:15;;;;;;;4.57;4.10;;;15.30;99.90;;;;;;4996418;28;20534;-88
2022/09/04 01:19:12;;;;;;;4.80;4.40;;;15.30;99.90;;;;;;5002870;28;20442;-87
2022/09/04 01:21:49;;;;;;;4.40;4.10;;;15.30;99.90;;;;;;4999342;28;20454;-89
2022/09/04 01:24:33;;;;;;;4.50;4.20;;;15.30;99.90;;;;;;4999962;28;20990;-87
2022/09/04 01:27:21;;;;;;;4.37;3.97;;;15.20;99.90;;;;;;4999916;28;20449;-87
2022/09/04 01:30:05;;;;;;;4.60;4.20;;;15.20;99.90;;;;;;5020214;28;20455;-87
2022/09/04 01:32:53;;;;;;;4.30;3.97;;;15.20;99.90;;;;;;4999803;28;20479;-86
2022/09/04 01:35:47;;;;;;;3.70;3.50;;;15.20;99.90;;;;;;4996672;28;20536;-87
2022/09/04 01:38:21;;;;;;;4.30;3.97;;;15.20;99.90;;;;;;5013896;28;20484;-88
2022/09/04 01:41:16;;;;;;;4.27;3.87;;;15.10;99.90;;;;;;4991739;28;21007;-86
2022/09/04 01:43:42;;;;;;;4.53;4.13;;;15.00;99.90;;;;;;4998902;28;20462;-89
2022/09/04 01:46:37;;;;;;;4.93;4.53;;;15.00;99.90;;;;;;5000128;28;20439;-88
2022/09/04 01:49:15;;;;;;;4.30;4.00;;;15.00;99.90;;;;;;4995360;28;20181;-89
2022/09/04 01:51:50;;;;;;;5.23;4.73;;;15.00;99.90;;;;;;4995109;28;20550;-88
2022/09/04 01:54:40;;;;;;;5.17;4.60;;;15.00;99.90;;;;;;4999381;28;20442;-89
2022/09/04 01:57:24;;;;;;;4.97;4.57;;;15.00;99.90;;;;;;4995260;28;20443;-89
2022/09/04 02:00:09;;;;;;;4.90;4.50;;;14.90;99.90;;;;;;5017647;28;20431;-89
2022/09/04 02:02:51;;;;;;;5.27;4.87;;;14.90;99.90;;;;;;4995084;28;20474;-87
2022/09/04 02:05:29;;;;;;;4.50;4.10;;;15.00;99.90;;;;;;4998911;28;20482;-88
2022/09/04 02:08:36;;;;;;;4.57;4.17;;;15.00;99.90;;;;;;4992707;28;20444;-88
2022/09/04 02:11:25;;;;;;;5.00;4.60;;;15.00;99.90;;;;;;4994740;28;21894;-87
2022/09/04 02:14:16;;;;;;;4.73;4.40;;;15.00;99.90;;;;;;5003114;28;21026;-88
2022/09/04 02:16:55;;;;;;;5.23;4.83;;;14.90;99.90;;;;;;4998824;28;20447;-88
2022/09/04 02:19:23;;;;;;;5.20;4.70;;;14.90;99.90;;;;;;4989321;28;20986;-88
2022/09/04 02:22:06;;;;;;;5.73;5.10;;;14.90;99.90;;;;;;5001663;28;20447;-87
2022/09/04 02:24:55;;;;;;;5.50;5.00;;;14.90;99.90;;;;;;4997582;28;20796;-87
2022/09/04 02:27:39;;;;;;;6.23;5.63;;;14.80;99.90;;;;;;4999826;28;20523;-88
2022/09/04 02:30:09;;;;;;;6.37;5.50;;;14.80;99.90;;;;;;5000708;28;20439;-87
2022/09/04 02:32:51;;;;;;;6.80;6.20;;;14.80;99.90;;;;;;5016181;28;20490;-87
2022/09/04 02:35:40;;;;;;;6.10;4.57;;;14.80;99.90;;;;;;4998085;28;20971;-88
2022/09/04 02:38:15;;;;;;;5.23;4.73;;;14.70;99.90;;;;;;5017198;28;20443;-88
2022/09/04 02:40:57;;;;;;;5.07;4.67;;;14.70;99.90;;;;;;5002638;28;20446;-88
2022/09/04 02:43:34;;;;;;;5.37;4.20;;;14.70;99.90;;;;;;5018690;28;20428;-88
2022/09/04 02:46:38;;;;;;;4.50;4.10;;;14.60;99.90;;;;;;5010304;28;20442;-88
2022/09/04 02:49:29;;;;;;;4.93;4.33;;;14.60;99.90;;;;;;5006129;28;20978;-88
2022/09/04 02:52:16;;;;;;;4.90;4.20;;;14.50;99.90;;;;;;5005658;28;20573;-87
2022/09/04 02:55:25;;;;;;;4.53;4.13;;;14.50;99.90;;;;;;5004485;28;20458;-88
2022/09/04 02:58:21;;;;;;;5.03;4.20;;;14.60;99.90;;;;;;5014631;28;20463;-88
2022/09/04 03:00:58;;;;;;;4.27;3.87;;;14.50;99.90;;;;;;5004076;28;21022;-88
2022/09/04 03:04:00;;;;;;;3.90;3.60;;;14.60;99.90;;;;;;4996637;28;20446;-87
2022/09/04 03:06:52;;;;;;;4.07;3.77;;;14.60;99.90;;;;;;4914974;28;20613;-88
2022/09/04 03:09:29;;;;;;;4.03;3.73;;;14.60;99.90;;;;;;4999012;28;20456;-87
2022/09/04 03:12:25;;;;;;;3.83;3.53;;;14.60;99.90;;;;;;5003946;28;20494;-87
2022/09/04 03:15:14;;;;;;;5.20;4.10;;;14.70;99.90;;;;;;5001251;28;20446;-87
2022/09/04 03:18:09;;;;;;;4.80;4.30;;;14.70;99.90;;;;;;4995434;28;21923;-87
2022/09/04 03:20:53;;;;;;;5.17;4.77;;;14.70;99.90;;;;;;5019714;28;20541;-88
2022/09/04 03:23:24;;;;;;;5.30;4.80;;;14.70;99.90;;;;;;5017216;28;20451;-88
2022/09/04 03:25:54;;;;;;;4.80;4.40;;;14.70;99.90;;;;;;5006272;28;20449;-87
2022/09/04 03:28:32;;;;;;;5.93;5.30;;;14.70;99.90;;;;;;5021488;28;20956;-87
2022/09/04 03:31:03;;;;;;;5.30;4.80;;;14.70;99.90;;;;;;5018150;28;21498;-88
2022/09/04 03:33:42;;;;;;;6.93;5.50;;;14.70;99.90;;;;;;5013949;28;20832;-87
2022/09/04 03:36:27;;;;;;;5.87;5.27;;;14.70;99.90;;;;;;5002476;28;20442;-87
2022/09/04 03:39:23;;;;;;;5.83;5.33;;;14.70;99.90;;;;;;4996254;28;20452;-87
2022/09/04 03:42:33;;;;;;;5.40;4.90;;;14.60;99.90;;;;;;5017236;28;20451;-87
2022/09/04 03:45:17;;;;;;;5.87;5.37;;;14.50;99.90;;;;;;5018108;28;20435;-87
2022/09/04 03:48:10;;;;;;;4.60;4.20;;;14.40;99.90;;;;;;4998959;28;20449;-87
2022/09/04 03:50:55;;;;;;;4.80;4.40;;;14.40;99.90;;;;;;5000248;28;20438;-87
2022/09/04 03:53:26;;;;;;;4.37;3.97;;;14.30;99.90;;;;;;5000237;28;20743;-87
2022/09/04 03:56:21;;;;;;;4.10;3.70;;;14.30;99.90;;;;;;5014653;28;20437;-87
2022/09/04 03:59:33;;;;;;;3.93;3.63;;;14.30;99.90;;;;;;5001476;28;20448;-87
2022/09/04 04:02:13;;;;;;;3.50;3.20;;;14.20;99.90;;;;;;4971271;28;21260;-87
2022/09/04 04:04:51;;;;;;;4.57;4.17;;;14.20;99.90;;;;;;5018448;28;20450;-87
2022/09/04 04:07:37;;;;;;;5.90;4.10;;;14.20;99.90;;;;;;5001054;28;20440;-87
2022/09/04 04:10:05;;;;;;;6.40;3.73;;;14.20;99.90;;;;;;5000321;28;21086;-88
2022/09/04 04:12:56;;;;;;;4.73;4.33;;;14.20;99.90;;;;;;5002029;28;20513;-88
2022/09/04 04:15:26;;;;;;;5.00;4.30;;;14.20;99.90;;;;;;5002232;28;20443;-88
2022/09/04 04:18:13;;;;;;;4.47;4.10;;;14.10;99.90;;;;;;5005613;28;20428;-88
2022/09/04 04:20:59;;;;;;;5.73;4.47;;;14.10;99.90;;;;;;5014981;28;20524;-88
2022/09/04 04:23:45;;;;;;;3.73;3.43;;;14.10;99.90;;;;;;5003286;28;20451;-88
2022/09/04 04:26:26;;;;;;;4.33;3.83;;;14.10;99.90;;;;;;5022217;28;20434;-88
2022/09/04 04:29:26;;;;;;;3.57;3.37;;;14.20;99.90;;;;;;4999283;28;20455;-87
2022/09/04 04:32:26;;;;;;;4.70;4.40;;;14.10;99.90;;;;;;5001981;28;20537;-88
2022/09/04 04:35:31;;;;;;;4.20;3.80;;;14.10;99.90;;;;;;4995794;28;20450;-88
2022/09/04 04:38:25;;;;;;;4.50;4.20;;;14.10;99.90;;;;;;4997085;28;20550;-88
2022/09/04 04:41:13;;;;;;;4.67;4.27;;;14.10;99.90;;;;;;4998165;28;20508;-88
2022/09/04 04:43:51;;;;;;;3.83;3.43;;;14.10;99.90;;;;;;4993553;28;20949;-88
2022/09/04 04:46:37;;;;;;;4.10;3.80;;;14.10;99.90;;;;;;5000223;28;20443;-88
2022/09/04 04:49:26;;;;;;;4.67;4.27;;;14.10;99.90;;;;;;4996453;28;21032;-89
2022/09/04 04:52:15;;;;;;;4.77;4.37;;;14.00;99.90;;;;;;4998968;28;20554;-88
2022/09/04 04:55:05;;;;;;;4.20;3.70;;;14.10;99.90;;;;;;5003892;28;20521;-87
2022/09/04 04:57:38;;;;;;;6.17;4.07;;;14.10;99.90;;;;;;4997509;28;20797;-88
2022/09/04 05:00:26;;;;;;;4.43;4.03;;;14.10;99.90;;;;;;5010837;28;20439;-87
2022/09/04 05:03:17;;;;;;;5.27;4.20;;;14.10;99.90;;;;;;4999038;28;20567;-87
2022/09/04 05:06:08;;;;;;;4.30;3.90;;;14.10;99.90;;;;;;5000602;28;20722;-89
2022/09/04 05:08:55;;;;;;;4.47;4.07;;;14.10;99.90;;;;;;5016527;28;20435;-88
2022/09/04 05:11:51;;;;;;;4.87;4.40;;;14.10;99.90;;;;;;4996630;28;20439;-87
2022/09/04 05:14:36;;;;;;;4.10;3.80;;;14.20;99.90;;;;;;4997457;28;20446;-88
2022/09/04 05:17:32;;;;;;;4.03;3.73;;;14.20;99.90;;;;;;4994731;28;20675;-87
2022/09/04 05:20:24;;;;;;;5.00;4.60;;;14.20;99.90;;;;;;5011030;28;20581;-87
2022/09/04 05:23:32;;;;;;;5.77;5.33;;;14.20;99.90;;;;;;5000182;28;20451;-88
2022/09/04 05:26:46;;;;;;;4.70;4.30;;;14.30;99.90;;;;;;4993623;28;20436;-87
2022/09/04 05:29:20;;;;;;;4.73;4.33;;;14.40;99.90;;;;;;4996584;28;21166;-87
2022/09/04 05:32:15;;;;;;;5.40;5.00;;;14.40;99.90;;;;;;5000389;28;20496;-87
2022/09/04 05:35:12;;;;;;;4.10;3.70;;;14.50;99.90;;;;;;5022585;28;20634;-88
2022/09/04 05:38:13;;;;;;;4.73;4.30;;;14.50;99.90;;;;;;4999443;28;21553;-88
2022/09/04 05:40:56;;;;;;;4.80;4.30;;;14.60;99.90;;;;;;5000479;28;20434;-90
2022/09/04 05:44:04;;;;;;;4.90;4.50;;;14.50;99.90;;;;;;4994498;28;20501;-88
2022/09/04 05:46:52;;;;;;;4.37;4.00;;;14.50;99.90;;;;;;4995612;28;20442;-87
2022/09/04 05:49:32;;;;;;;4.60;4.23;;;14.50;99.90;;;;;;5016297;28;20438;-89
2022/09/04 05:52:35;;;;;;;4.60;4.20;;;14.60;99.90;;;;;;5004193;28;20461;-87
2022/09/04 05:55:30;;;;;;;4.47;4.17;;;14.70;99.90;;;;;;4999217;28;20529;-87
2022/09/04 05:58:30;;;;;;;4.23;3.90;;;14.80;99.90;;;;;;4993619;28;20479;-88
2022/09/04 06:01:07;;;;;;;4.67;4.27;;;14.90;99.90;;;;;;4995483;28;20962;-88
2022/09/04 06:04:18;;;;;;;4.47;4.10;;;15.00;99.90;;;;;;4998205;28;20453;-87
2022/09/04 06:07:09;;;;;;;5.93;4.23;;;15.10;99.90;;;;;;4980206;28;20952;-87
2022/09/04 06:09:57;;;;;;;5.07;4.60;;;15.20;99.90;;;;;;4987460;28;21053;-87
2022/09/04 06:12:43;;;;;;;4.53;4.23;;;15.20;99.90;;;;;;4995915;28;20988;-87
2022/09/04 06:15:22;;;;;;;4.40;4.00;;;15.20;99.90;;;;;;4999604;28;20431;-86
2022/09/04 06:18:27;;;;;;;4.60;4.20;;;15.30;99.90;;;;;;4990122;28;20955;-87
2022/09/04 06:21:10;;;;;;;4.70;4.30;;;15.40;99.90;;;;;;4960842;28;20548;-89
2022/09/04 06:24:15;;;;;;;4.90;4.50;;;15.50;99.90;;;;;;5017883;28;20430;-86
2022/09/04 06:27:16;;;;;;;5.40;5.00;;;15.50;99.90;;;;;;4990381;28;20444;-86
2022/09/04 06:30:06;;;;;;;5.03;4.63;;;15.50;99.90;;;;;;4997523;28;20450;-86
2022/09/04 06:33:09;;;;;;;4.80;4.40;;;15.70;99.90;;;;;;4996490;28;20482;-85
2022/09/04 06:35:53;;;;;;;5.03;4.60;;;15.80;99.90;;;;;;4990913;28;20443;-85
2022/09/04 06:38:50;;;;;;;4.40;4.10;;;15.80;99.90;;;;;;4989994;28;20474;-86
2022/09/04 06:41:51;;;;;;;4.73;4.37;;;15.80;99.90;;;;;;4998272;28;20443;-85
2022/09/04 06:45:03;;;;;;;5.27;4.57;;;15.90;99.90;;;;;;4989803;28;20455;-85
2022/09/04 06:47:54;;;;;;;6.67;4.60;;;15.90;99.90;;;;;;5013142;28;20435;-85
2022/09/04 06:50:45;;;;;;;5.40;4.97;;;15.90;99.90;;;;;;4998737;28;20447;-85
2022/09/04 06:53:35;;;;;;;5.60;5.10;;;15.90;99.90;;;;;;5012498;28;20511;-84
2022/09/04 06:56:25;;;;;;;4.93;4.53;;;16.10;99.90;;;;;;5009835;28;20498;-84
2022/09/04 06:59:05;;;;;;;4.70;4.30;;;16.10;99.90;;;;;;4991560;28;20533;-83
2022/09/04 07:02:06;;;;;;;5.10;4.60;;;16.10;99.90;;;;;;4993418;28;20443;-84
2022/09/04 07:04:50;;;;;;;4.67;4.37;;;16.20;99.90;;;;;;5012701;28;20451;-85
2022/09/04 07:07:19;;;;;;;5.13;4.73;;;16.20;99.90;;;;;;5011038;28;20699;-84
2022/09/04 07:09:58;;;;;;;4.47;4.07;;;16.30;99.90;;;;;;4995517;28;20513;-84
2022/09/04 07:13:01;;;;;;;5.43;5.03;;;16.30;99.90;;;;;;5012333;28;20557;-85
2022/09/04 07:15:39;;;;;;;6.40;4.77;;;16.40;99.90;;;;;;5013613;28;20452;-85
2022/09/04 07:18:34;;;;;;;4.60;4.20;;;16.50;99.90;;;;;;5001771;28;20443;-87
2022/09/04 07:21:33;;;;;;;4.57;4.17;;;16.60;99.90;;;;;;5014923;28;20455;-85
2022/09/04 07:24:07;;;;;;;5.63;5.13;;;16.70;99.90;;;;;;5000220;28;20916;-86
2022/09/04 07:26:56;;;;;;;4.93;4.50;;;16.80;99.90;;;;;;4993376;28;20461;-85
2022/09/04 07:29:43;;;;;;;4.60;4.17;;;17.00;99.90;;;;;;4998754;28;20439;-86
2022/09/04 07:32:19;;;;;;;4.47;4.17;;;17.20;99.90;;;;;;4993623;28;20463;-85
2022/09/04 07:34:58;;;;;;;5.00;4.60;;;17.40;99.90;;;;;;5001261;28;20454;-85
2022/09/04 07:37:39;;;;;;;5.20;4.53;;;17.50;99.90;;;;;;5010389;28;20435;-86
2022/09/04 07:40:36;;;;;;;5.63;5.13;;;17.50;99.90;;;;;;5008828;28;21022;-86
2022/09/04 07:43:12;;;;;;;5.13;4.67;;;17.50;99.90;;;;;;4990275;28;20451;-87
2022/09/04 07:46:16;;;;;;;4.70;4.30;;;17.60;99.90;;;;;;4996281;28;20530;-85
2022/09/04 07:48:58;;;;;;;4.37;3.97;;;17.70;99.90;;;;;;4990131;28;20796;-84
2022/09/04 07:51:33;;;;;;;5.17;4.67;;;17.90;99.90;;;;;;5009087;28;20482;-85
2022/09/04 07:54:24;;;;;;;4.53;4.13;;;18.10;99.90;;;;;;4993579;28;20451;-86
2022/09/04 07:57:26;;;;;;;5.23;4.60;;;18.10;99.90;;;;;;4996761;28;20468;-84
2022/09/04 08:00:12;;;;;;;7.47;6.80;;;18.10;99.90;;;;;;5007643;28;20462;-92
2022/09/04 08:03:19;;;;;;;6.30;5.90;;;18.40;99.90;;;;;;4998919;28;20450;-93
2022/09/04 08:06:23;;;;;;;5.60;4.70;;;18.70;99.90;;;;;;5012148;28;20431;-93
2022/09/04 08:09:17;;;;;;;7.73;6.50;;;18.90;99.90;;;;;;4998513;28;20439;-92
2022/09/04 08:11:48;;;;;;;5.13;4.73;;;19.10;99.90;;;;;;5000679;28;20990;-92
2022/09/04 08:14:36;;;;;;;6.23;5.70;;;19.40;99.90;;;;;;4997499;28;20480;-93
2022/09/04 08:17:24;;;;;;;5.13;4.70;;;19.60;99.90;;;;;;5003708;28;20446;-92
2022/09/04 08:20:15;;;;;;;5.00;4.10;;;19.90;99.90;;;;;;4999812;28;20439;-92
2022/09/04 08:23:11;;;;;;;4.23;3.93;;;20.10;99.90;;;;;;5007271;28;20467;-92
2022/09/04 08:26:10;;;;;;;3.87;3.50;;;20.10;99.90;;;;;;5003442;28;20602;-93
2022/09/04 08:29:12;;;;;;;4.17;3.77;;;20.20;99.90;;;;;;5001549;28;20702;-93
2022/09/04 08:31:42;;;;;;;4.17;3.70;;;20.30;99.90;;;;;;5005515;28;21265;-91
2022/09/04 08:34:33;;;;;;;3.50;3.30;;;20.50;99.90;;;;;;5002359;28;20972;-93
2022/09/04 08:37:21;;;;;;;3.43;3.23;;;20.50;99.90;;;;;;5004144;28;20440;-93
2022/09/04 08:40:13;;;;;;;3.67;3.40;;;20.40;99.90;;;;;;4996819;28;20452;-92
2022/09/04 08:43:10;;;;;;;3.50;3.30;;;20.50;99.90;;;;;;4997239;28;20797;-92
2022/09/04 08:45:54;;;;;;;3.13;2.90;;;20.80;99.90;;;;;;5019118;28;20446;-94
2022/09/04 08:48:41;;;;;;;4.20;2.80;;;21.00;99.90;;;;;;5003847;28;20440;-96
2022/09/04 08:51:27;;;;;;;3.33;3.13;;;21.30;99.90;;;;;;5009046;28;20442;-94
2022/09/04 08:54:37;;;;;;;3.23;2.63;;;21.40;99.90;;;;;;5012548;28;20459;-91
2022/09/04 08:57:38;;;;;;;3.00;2.80;;;21.50;99.90;;;;;;5019733;28;20440;-92
2022/09/04 09:00:14;;;;;;;3.67;2.97;;;21.70;99.90;;;;;;5004918;28;21187;-93
2022/09/04 09:02:58;;;;;;;2.37;2.27;;;21.80;99.90;;;;;;4999200;28;20431;-93
2022/09/04 09:05:44;;;;;;;2.30;2.20;;;22.00;99.90;;;;;;5021780;28;20450;-94
2022/09/04 09:08:24;;;;;;;3.07;2.87;;;22.20;99.90;;;;;;5016528;28;20443;-92
2022/09/04 09:11:20;;;;;;;2.93;2.73;;;22.50;99.90;;;;;;5015235;28;20432;-92
2022/09/04 09:14:27;;;;;;;3.20;2.90;;;22.20;99.90;;;;;;5003934;28;20474;-92
2022/09/04 09:17:12;;;;;;;3.13;2.93;;;22.10;99.90;;;;;;5014689;28;20916;-92
2022/09/04 09:19:44;;;;;;;3.20;3.00;;;22.30;99.90;;;;;;4997994;28;21122;-91
2022/09/04 09:22:37;;;;;;;4.10;3.20;;;22.40;99.90;;;;;;5013883;28;20451;-91
2022/09/04 09:25:41;;;;;;;3.37;3.10;;;22.30;99.90;;;;;;4961280;28;21106;-91
2022/09/04 09:28:44;;;;;;;3.00;2.80;;;21.80;99.90;;;;;;5021074;28;20564;-92
2022/09/04 09:31:37;;;;;;;3.00;2.40;;;22.00;99.90;;;;;;4998141;28;20441;-92
2022/09/04 09:38:00;;;;;;;4.43;2.50;;;23.00;99.90;;;;;;5010633;28;20453;-90
2022/09/04 09:40:54;;;;;;;3.37;3.07;;;23.40;99.90;;;;;;4993779;28;20899;-93
2022/09/04 09:43:58;;;;;;;2.80;2.60;;;23.40;99.90;;;;;;5004893;28;20434;-94
2022/09/04 09:46:51;;;;;;;2.63;2.43;;;23.60;99.90;;;;;;5004239;28;20522;-92
2022/09/04 09:49:34;;;;;;;2.60;2.40;;;23.50;99.90;;;;;;4999735;28;20789;-92
2022/09/04 09:52:19;;;;;;;2.63;2.43;;;23.80;99.90;;;;;;5000385;28;20490;-91
2022/09/04 09:55:22;;;;;;;4.60;2.30;;;24.20;99.90;;;;;;4998154;28;20443;-94
2022/09/04 09:58:12;;;;;;;2.63;2.43;;;24.20;99.90;;;;;;5019576;28;20438;-93
2022/09/04 10:01:15;;;;;;;2.37;2.23;;;24.60;99.90;;;;;;5014827;28;21061;-92
2022/09/04 10:04:18;;;;;;;2.10;2.00;;;24.30;99.90;;;;;;5004631;28;20791;-92
2022/09/04 10:07:06;;;;;;;2.70;2.50;;;24.50;99.90;;;;;;5000185;28;20446;-94
2022/09/04 10:09:57;;;;;;;2.13;2.03;;;24.90;99.90;;;;;;5001358;28;20893;-91
2022/09/04 10:12:48;;;;;;;2.63;2.53;;;25.50;99.90;;;;;;4968243;28;20458;-93
2022/09/04 10:15:39;;;;;;;2.20;2.00;;;25.90;99.90;;;;;;5012278;28;20469;-93
2022/09/04 10:18:13;;;;;;;2.10;1.90;;;26.00;99.50;;;;;;5003004;28;20442;-92
2022/09/04 10:21:11;;;;;;;1.90;1.80;;;26.30;99.90;;;;;;5001269;28;20458;-94
2022/09/04 10:24:15;;;;;;;2.40;2.20;;;27.00;98.80;;;;;;5002357;28;20469;-96
2022/09/04 10:27:12;;;;;;;3.87;2.17;;;27.00;97.90;;;;;;4997481;28;20808;-94
2022/09/04 10:29:52;;;;;;;2.60;2.40;;;26.70;97.40;;;;;;5002141;28;20452;-91
2022/09/04 10:32:31;;;;;;;2.30;2.10;;;26.80;96.10;;;;;;5001154;28;20901;-93
2022/09/04 10:35:40;;;;;;;2.10;2.00;;;26.30;96.10;;;;;;5016013;28;20474;-92
2022/09/04 10:38:20;;;;;;;2.10;1.90;;;25.90;96.80;;;;;;5007388;28;20439;-94
2022/09/04 10:41:31;;;;;;;2.10;2.00;;;25.60;97.80;;;;;;5008424;28;20536;-93
2022/09/04 10:44:30;;;;;;;3.10;2.30;;;25.20;97.20;;;;;;5014020;28;20450;-95
2022/09/04 10:47:04;;;;;;;2.17;2.07;;;25.20;97.20;;;;;;5016167;28;20526;-95
2022/09/04 10:49:55;;;;;;;1.90;1.80;;;25.60;98.50;;;;;;5003497;28;20496;-93
2022/09/04 10:52:29;;;;;;;2.23;2.13;;;25.70;96.20;;;;;;5011214;28;20470;-93
2022/09/04 10:55:13;;;;;;;2.73;2.00;;;25.50;96.10;;;;;;5009961;28;20446;-93
2022/09/04 10:57:42;;;;;;;1.90;1.80;;;25.60;96.70;;;;;;5027466;28;20431;-95
2022/09/04 11:00:19;;;;;;;2.00;1.90;;;25.40;96.40;;;;;;5024059;28;21822;-92
2022/09/04 11:03:22;;;;;;;2.80;2.33;;;25.30;96.20;;;;;;5005752;28;20442;-94
2022/09/04 11:06:09;;;;;;;2.70;2.50;;;25.40;95.80;;;;;;5016846;28;20466;-94
2022/09/04 11:08:59;;;;;;;2.37;1.97;;;25.60;95.60;;;;;;5029916;28;20459;-94
2022/09/04 11:12:05;;;;;;;2.30;2.10;;;25.90;95.70;;;;;;5000056;28;20435;-93
2022/09/04 11:15:07;;;;;;;2.23;2.10;;;26.00;94.90;;;;;;5000603;28;21006;-94
2022/09/04 11:18:00;;;;;;;2.40;2.20;;;25.90;94.90;;;;;;5018647;28;21127;-95
2022/09/04 11:20:40;;;;;;;1.90;1.80;;;25.80;94.70;;;;;;5022325;28;20430;-95
2022/09/04 11:23:25;;;;;;;2.17;2.07;;;26.20;94.80;;;;;;5014082;28;20442;-94
2022/09/04 11:26:05;;;;;;;2.90;2.03;;;26.70;93.30;;;;;;5001474;28;20534;-92
2022/09/04 11:44:27;;;;;;;2.00;1.80;;;27.30;94.00;;;;;;5027257;28;20474;-96
2022/09/04 11:47:15;;;;;;;2.07;1.97;;;27.40;95.30;;;;;;5027423;28;20427;-94
2022/09/04 11:49:56;;;;;;;2.20;2.00;;;27.60;94.60;;;;;;5001963;28;20490;-95
2022/09/04 12:03:10;;;;;;;2.50;2.30;;;28.80;92.10;;;;;;5010753;28;20498;-96
2022/09/04 12:06:05;;;;;;;2.00;1.90;;;28.30;92.60;;;;;;4972205;28;20440;-92
2022/09/04 12:09:09;;;;;;;3.67;1.90;;;28.20;94.60;;;;;;4988080;28;20450;-89
2022/09/04 12:12:02;;;;;;;2.00;1.90;;;27.60;93.80;;;;;;4993296;28;21013;-92
2022/09/04 12:15:24;;;;;;;1.90;1.80;;;28.20;93.50;;;;;;4976511;28;20777;-90
2022/09/04 12:17:56;;;;;;;2.10;2.00;;;28.00;92.20;;;;;;4990698;28;20999;-92
2022/09/04 12:20:41;;;;;;;2.07;1.97;;;28.20;92.80;;;;;;4999350;28;20443;-91
2022/09/04 12:23:30;;;;;;;1.90;1.80;;;27.80;92.10;;;;;;4983926;28;20507;-93
2022/09/04 12:26:10;;;;;;;2.47;2.27;;;27.00;92.90;;;;;;4991434;28;20447;-91
2022/09/04 12:28:50;;;;;;;4.43;2.10;;;26.40;94.50;;;;;;4988613;28;20481;-92
2022/09/04 12:31:34;;;;;;;1.83;1.73;;;25.80;94.70;;;;;;4986240;28;20447;-92
2022/09/04 12:34:19;;;;;;;2.20;2.00;;;25.50;96.00;;;;;;4984354;28;20456;-93
2022/09/04 12:37:02;;;;;;;2.27;2.17;;;25.40;97.00;;;;;;5006010;28;20944;-91
2022/09/04 12:39:47;;;;;;;2.00;1.80;;;25.90;95.10;;;;;;4998036;28;20466;-93
2022/09/04 12:42:29;;;;;;;2.73;1.90;;;26.60;94.50;;;;;;4985845;28;20468;-92
2022/09/04 12:45:20;;;;;;;2.20;1.73;;;27.40;92.40;;;;;;5002921;28;20927;-92
2022/09/04 12:47:56;;;;;;;2.10;2.00;;;27.80;92.00;;;;;;4984966;28;21032;-93
2022/09/04 12:50:34;;;;;;;1.80;1.57;;;27.90;90.40;;;;;;4999722;28;20440;-92
2022/09/04 12:53:24;;;;;;;1.90;1.80;;;28.10;91.00;;;;;;4982013;28;20436;-93
2022/09/04 12:56:09;;;;;;;1.80;1.70;;;27.90;91.00;;;;;;4993241;28;20557;-93
2022/09/04 12:59:22;;;;;;;2.60;1.80;;;28.20;90.70;;;;;;4983370;28;20439;-92
2022/09/04 13:02:15;;;;;;;2.60;2.40;;;27.70;88.30;;;;;;4981724;28;20535;-90
2022/09/04 13:04:54;;;;;;;1.90;1.80;;;27.20;91.10;;;;;;4974183;28;20448;-91
2022/09/04 13:07:23;;;;;;;1.77;1.67;;;27.00;91.20;;;;;;4972503;28;21540;-91
2022/09/04 13:10:07;;;;;;;1.70;1.60;;;27.50;91.60;;;;;;4981967;28;20453;-91
2022/09/04 13:13:03;;;;;;;2.07;1.97;;;27.90;88.70;;;;;;4990397;28;20452;-90
2022/09/04 13:15:38;;;;;;;1.70;1.60;;;28.10;90.80;;;;;;4979696;28;20440;-91
2022/09/04 13:18:23;;;;;;;2.40;2.20;;;28.20;89.10;;;;;;4998717;28;20910;-92
2022/09/04 13:21:09;;;;;;;2.13;2.00;;;28.00;89.30;;;;;;4974626;28;21020;-93
2022/09/04 13:23:46;;;;;;;1.70;1.60;;;27.80;86.80;;;;;;4998962;28;20472;-91
2022/09/04 13:26:34;;;;;;;3.17;1.50;;;28.30;88.00;;;;;;4991999;28;20478;-92
2022/09/04 13:29:24;;;;;;;2.13;1.90;;;28.40;91.20;;;;;;4976640;28;20452;-94
2022/09/04 13:32:00;;;;;;;2.40;1.70;;;28.30;86.60;;;;;;4996211;28;20493;-96
2022/09/04 13:34:58;;;;;;;1.90;1.77;;;28.90;86.20;;;;;;4983057;28;20434;-91
2022/09/04 13:37:44;;;;;;;2.07;1.97;;;28.50;84.50;;;;;;4979818;28;20452;-92
2022/09/04 13:40:35;;;;;;;1.77;1.67;;;28.70;86.60;;;;;;4994721;28;20445;-92
2022/09/04 13:43:39;;;;;;;1.73;1.50;;;28.60;85.50;;;;;;4979339;28;21116;-93
2022/09/04 13:46:12;;;;;;;70.20;64.07;;;28.20;82.90;;;;;;4970975;28;20964;-90
2022/09/04 13:48:50;;;;;;;77.03;71.30;;;28.40;85.10;;;;;;4988275;28;20427;-91
2022/09/04 13:51:33;;;;;;;1.80;1.70;;;29.20;87.30;;;;;;4975114;28;20534;-90
2022/09/04 13:54:18;;;;;;;1.70;1.60;;;28.50;78.00;;;;;;4978712;28;20459;-89
2022/09/04 13:57:25;;;;;;;1.50;1.40;;;28.20;83.50;;;;;;4972409;28;20463;-89
2022/09/04 13:59:54;;;;;;;2.20;1.77;;;29.00;85.80;;;;;;4992874;28;20497;-89
2022/09/04 14:02:24;;;;;;;2.40;1.87;;;29.40;76.90;;;;;;4980494;28;20467;-90
2022/09/04 14:05:16;;;;;;;1.53;1.43;;;29.00;81.20;;;;;;4989708;28;20439;-90
2022/09/04 14:07:46;;;;;;;1.97;1.87;;;30.30;80.80;;;;;;4982862;28;20456;-90
2022/09/04 14:10:18;;;;;;;1.90;1.80;;;33.20;70.20;;;;;;4984662;28;20444;-91
2022/09/04 14:13:11;;;;;;;1.73;1.63;;;34.30;70.30;;;;;;4979176;28;20495;-91
2022/09/04 14:15:56;;;;;;;1.70;1.60;;;37.00;62.10;;;;;;5000152;28;21074;-91
2022/09/04 14:18:25;;;;;;;1.50;1.40;;;37.20;53.10;;;;;;4984096;28;20447;-90
2022/09/04 14:20:58;;;;;;;1.60;1.50;;;38.40;51.00;;;;;;4999024;28;20905;-91
2022/09/04 14:23:55;;;;;;;2.57;1.83;;;36.30;50.10;;;;;;4972814;28;20477;-89
2022/09/04 14:26:39;;;;;;;2.40;1.50;;;34.10;53.40;;;;;;4976870;28;20435;-92
2022/09/04 14:29:35;;;;;;;1.67;1.43;;;32.90;56.30;;;;;;4972480;28;20474;-88
2022/09/04 14:32:32;;;;;;;1.57;1.47;;;33.80;54.90;;;;;;4971495;28;20432;-91
2022/09/04 14:35:09;;;;;;;1.80;1.70;;;33.20;55.10;;;;;;4972849;28;20443;-89
2022/09/04 14:37:45;;;;;;;1.87;1.77;;;30.60;56.70;;;;;;4977082;28;20491;-89
2022/09/04 14:40:18;;;;;;;2.00;1.70;;;29.00;62.60;;;;;;4975510;28;20447;-89
2022/09/04 14:43:20;;;;;;;1.60;1.50;;;28.70;67.40;;;;;;4970188;28;20496;-89
2022/09/04 14:46:06;;;;;;;1.77;1.67;;;28.20;64.80;;;;;;5016354;28;20450;-87
2022/09/04 14:48:47;;;;;;;1.70;1.60;;;28.20;67.20;;;;;;4980150;28;20537;-88
2022/09/04 14:51:36;;;;;;;2.87;1.80;;;28.80;68.10;;;;;;4983971;28;20431;-89
2022/09/04 14:54:08;;;;;;;1.87;1.47;;;28.90;63.70;;;;;;4978402;28;20448;-90
2022/09/04 14:56:54;;;;;;;1.57;1.47;;;28.40;64.50;;;;;;4982857;28;20493;-92
2022/09/04 14:59:37;;;;;;;1.87;1.60;;;28.60;66.70;;;;;;4990669;28;20450;-88